createdAt,value
2023-05-25T00:01:04.951Z,11.90
2023-05-25T00:03:32.648Z,11.80
2023-05-25T00:06:03.113Z,11.80
2023-05-25T00:08:30.140Z,11.80
2023-05-25T00:10:57.115Z,11.80
2023-05-25T00:13:24.181Z,11.70
2023-05-25T00:15:51.239Z,11.70
2023-05-25T00:18:18.666Z,11.70
2023-05-25T00:20:47.466Z,11.70
2023-05-25T00:23:14.668Z,11.70
2023-05-25T00:25:41.870Z,11.60
2023-05-25T00:28:11.129Z,11.70
2023-05-25T00:30:38.226Z,11.60
2023-05-25T00:33:05.677Z,11.50
2023-05-25T00:35:32.709Z,11.40
2023-05-25T00:37:59.624Z,11.30
2023-05-25T00:40:26.521Z,11.20
2023-05-25T00:42:53.579Z,11.20
2023-05-25T00:45:20.469Z,11.10
2023-05-25T00:47:52.326Z,11.20
2023-05-25T00:50:31.794Z,11.20
2023-05-25T00:52:58.971Z,11.20
2023-05-25T00:55:29.998Z,11.10
2023-05-25T00:57:58.975Z,11.00
2023-05-25T01:00:26.766Z,11.00
2023-05-25T01:02:56.587Z,11.00
2023-05-25T01:05:29.070Z,10.90
2023-05-25T01:07:59.594Z,10.80
2023-05-25T01:10:28.465Z,10.80
2023-05-25T01:12:56.360Z,10.80
2023-05-25T01:15:23.937Z,10.90
2023-05-25T01:17:54.203Z,10.90
2023-05-25T01:20:21.225Z,10.80
2023-05-25T01:23:01.737Z,10.70
2023-05-25T01:25:36.427Z,10.70
2023-05-25T01:28:16.511Z,10.60
2023-05-25T01:30:47.212Z,10.50
2023-05-25T01:33:16.102Z,10.60
2023-05-25T01:35:44.525Z,10.60
2023-05-25T01:38:11.798Z,10.50
2023-05-25T01:40:38.677Z,10.50
2023-05-25T01:43:05.674Z,10.50
2023-05-25T01:45:33.055Z,10.50
2023-05-25T01:48:23.880Z,10.50
2023-05-25T01:51:04.989Z,10.40
2023-05-25T01:53:37.214Z,10.40
2023-05-25T01:56:11.692Z,10.40
2023-05-25T01:58:50.817Z,10.50
2023-05-25T02:01:20.049Z,10.40
2023-05-25T02:03:49.229Z,10.30
2023-05-25T02:06:16.711Z,10.30
2023-05-25T02:08:46.866Z,10.20
2023-05-25T02:11:14.829Z,10.30
2023-05-25T02:13:41.847Z,10.30
2023-05-25T02:16:08.879Z,10.20
2023-05-25T02:18:35.963Z,10.20
2023-05-25T02:21:02.936Z,10.10
2023-05-25T02:23:30.439Z,10.10
2023-05-25T02:25:57.334Z,10.10
2023-05-25T02:28:24.336Z,10.10
2023-05-25T02:30:51.299Z,10.10
2023-05-25T02:33:18.910Z,10.10
2023-05-25T02:35:46.151Z,10.10
2023-05-25T02:38:13.900Z,10.10
2023-05-25T02:40:40.848Z,10.20
2023-05-25T02:43:07.924Z,10.10
2023-05-25T02:45:34.976Z,10.10
2023-05-25T02:48:01.911Z,10.10
2023-05-25T02:50:28.875Z,10.00
2023-05-25T02:52:55.877Z,10.00
2023-05-25T02:55:23.010Z,10.00
2023-05-25T02:57:49.960Z,10.00
2023-05-25T03:00:17.304Z,9.90
2023-05-25T03:02:46.962Z,10.00
2023-05-25T03:05:13.962Z,9.90
2023-05-25T03:07:42.104Z,9.80
2023-05-25T03:10:10.522Z,9.80
2023-05-25T03:12:37.452Z,9.80
2023-05-25T03:15:05.219Z,9.80
2023-05-25T03:17:32.242Z,9.80
2023-05-25T03:19:59.181Z,9.90
2023-05-25T03:22:27.237Z,9.90
2023-05-25T03:24:54.231Z,9.90
2023-05-25T03:27:21.182Z,9.80
2023-05-25T03:29:51.600Z,9.80
2023-05-25T03:32:18.666Z,9.80
2023-05-25T03:34:45.709Z,9.90
2023-05-25T03:37:12.660Z,9.80
2023-05-25T03:39:39.618Z,9.80
2023-05-25T03:42:07.244Z,9.80
2023-05-25T03:44:34.232Z,9.80
2023-05-25T03:47:01.320Z,9.80
2023-05-25T03:49:28.414Z,9.70
2023-05-25T03:51:55.454Z,9.70
2023-05-25T03:54:22.414Z,9.70
2023-05-25T03:56:49.294Z,9.70
2023-05-25T03:59:16.464Z,9.70
2023-05-25T04:01:43.572Z,9.80
2023-05-25T04:04:10.750Z,9.80
2023-05-25T04:06:37.839Z,9.90
2023-05-25T04:09:05.198Z,9.90
2023-05-25T04:11:32.437Z,10.00
2023-05-25T04:14:00.016Z,10.00
2023-05-25T04:16:27.125Z,9.90
2023-05-25T04:18:54.060Z,10.00
2023-05-25T04:21:20.990Z,10.10
2023-05-25T04:23:47.922Z,10.10
2023-05-25T04:26:16.496Z,10.10
2023-05-25T04:28:43.585Z,10.10
2023-05-25T04:31:12.961Z,10.10
2023-05-25T04:33:40.797Z,10.30
2023-05-25T04:36:11.269Z,10.40
2023-05-25T04:38:38.396Z,10.30
2023-05-25T04:41:06.585Z,10.40
2023-05-25T04:43:33.948Z,10.40
2023-05-25T04:46:01.054Z,10.60
2023-05-25T04:48:28.602Z,10.50
2023-05-25T04:50:56.021Z,10.50
2023-05-25T04:53:23.619Z,10.50
2023-05-25T04:55:51.642Z,10.60
2023-05-25T04:58:18.732Z,10.70
2023-05-25T05:00:46.370Z,10.70
2023-05-25T05:03:13.893Z,10.70
2023-05-25T05:05:41.021Z,10.70
2023-05-25T05:08:08.141Z,10.70
2023-05-25T05:10:35.154Z,10.70
2023-05-25T05:13:02.099Z,10.80
2023-05-25T05:15:29.137Z,11.00
2023-05-25T05:17:56.213Z,11.10
2023-05-25T05:20:23.367Z,11.20
2023-05-25T05:22:50.488Z,11.30
2023-05-25T05:25:17.664Z,11.30
2023-05-25T05:27:44.685Z,11.50
2023-05-25T05:30:12.060Z,11.70
2023-05-25T05:32:38.964Z,11.70
2023-05-25T05:35:06.462Z,11.90
2023-05-25T05:37:33.523Z,12.30
2023-05-25T05:40:00.527Z,12.50
2023-05-25T05:42:27.596Z,12.60
2023-05-25T05:44:54.541Z,12.70
2023-05-25T05:47:22.297Z,12.80
2023-05-25T05:49:49.345Z,12.90
2023-05-25T05:52:16.380Z,12.80
2023-05-25T05:54:43.278Z,12.70
2023-05-25T05:57:10.255Z,12.60
2023-05-25T05:59:37.202Z,12.70
2023-05-25T06:02:04.542Z,12.70
2023-05-25T06:04:31.572Z,12.90
2023-05-25T06:06:59.157Z,13.10
2023-05-25T06:09:29.143Z,13.10
2023-05-25T06:11:56.124Z,13.10
2023-05-25T06:14:23.065Z,13.10
2023-05-25T06:16:51.230Z,13.20
2023-05-25T06:19:18.284Z,13.20
2023-05-25T06:21:45.496Z,13.40
2023-05-25T06:24:12.412Z,13.90
2023-05-25T06:26:39.284Z,14.10
2023-05-25T06:29:06.319Z,14.30
2023-05-25T06:31:33.246Z,14.40
2023-05-25T06:34:00.149Z,14.10
2023-05-25T06:36:27.486Z,14.00
2023-05-25T06:38:54.512Z,13.80
2023-05-25T06:41:21.402Z,13.80
2023-05-25T06:43:48.347Z,14.00
2023-05-25T06:46:18.300Z,14.40
2023-05-25T06:48:46.211Z,14.80
2023-05-25T06:51:13.536Z,14.90
2023-05-25T06:53:40.703Z,14.90
2023-05-25T06:56:07.688Z,14.90
2023-05-25T06:58:34.687Z,15.00
2023-05-25T07:01:03.140Z,14.90
2023-05-25T07:03:30.433Z,15.00
2023-05-25T07:05:57.361Z,15.10
2023-05-25T07:08:24.238Z,15.40
2023-05-25T07:10:51.113Z,16.00
2023-05-25T07:13:18.073Z,16.40
2023-05-25T07:15:45.241Z,16.40
2023-05-25T07:18:13.056Z,16.40
2023-05-25T07:20:42.421Z,16.40
2023-05-25T07:23:10.645Z,16.20
2023-05-25T07:25:41.735Z,15.80
2023-05-25T07:28:09.071Z,15.40
2023-05-25T07:30:36.439Z,15.30
2023-05-25T07:33:03.530Z,15.20
2023-05-25T07:35:30.512Z,15.50
2023-05-25T07:38:02.557Z,15.90
2023-05-25T07:40:29.485Z,16.20
2023-05-25T07:42:56.886Z,16.60
2023-05-25T07:45:24.064Z,16.60
2023-05-25T07:47:51.248Z,16.80
2023-05-25T07:50:18.472Z,17.20
2023-05-25T07:52:45.369Z,18.00
2023-05-25T07:55:12.554Z,18.10
2023-05-25T07:57:39.528Z,18.10
2023-05-25T08:00:11.185Z,17.40
2023-05-25T08:02:38.258Z,17.20
2023-05-25T08:05:06.337Z,17.40
2023-05-25T08:07:34.122Z,17.70
2023-05-25T08:10:01.634Z,18.30
2023-05-25T08:12:38.366Z,18.00
2023-05-25T08:15:09.924Z,18.00
2023-05-25T08:17:36.975Z,17.80
2023-05-25T08:20:07.235Z,17.60
2023-05-25T08:22:37.502Z,17.60
2023-05-25T08:25:05.314Z,17.10
2023-05-25T08:27:34.553Z,17.10
2023-05-25T08:30:03.048Z,17.10
2023-05-25T08:32:30.002Z,17.60
2023-05-25T08:34:57.113Z,17.90
2023-05-25T08:37:25.015Z,18.00
2023-05-25T08:39:51.973Z,18.10
2023-05-25T08:42:19.000Z,18.20
2023-05-25T08:44:46.098Z,17.90
2023-05-25T08:47:17.049Z,17.90
2023-05-25T08:49:45.491Z,17.50
2023-05-25T08:52:15.181Z,17.70
2023-05-25T08:54:48.015Z,17.60
2023-05-25T08:57:34.471Z,17.80
2023-05-25T09:00:11.900Z,18.40
2023-05-25T09:02:54.514Z,18.60
2023-05-25T09:05:22.707Z,18.40
2023-05-25T09:07:51.548Z,18.50
2023-05-25T09:10:18.975Z,18.50
2023-05-25T09:12:48.119Z,18.50
2023-05-25T09:15:15.489Z,18.90
2023-05-25T09:17:42.463Z,18.90
2023-05-25T09:20:14.123Z,18.70
2023-05-25T09:22:42.125Z,19.20
2023-05-25T09:25:11.516Z,20.40
2023-05-25T09:27:38.943Z,20.90
2023-05-25T09:30:06.822Z,21.60
2023-05-25T09:32:34.183Z,21.70
2023-05-25T09:35:08.949Z,22.20
2023-05-25T09:37:37.397Z,21.90
2023-05-25T09:40:08.978Z,21.10
2023-05-25T09:42:37.127Z,21.10
2023-05-25T09:45:05.395Z,21.30
2023-05-25T09:47:32.820Z,21.70
2023-05-25T09:50:00.376Z,21.80
2023-05-25T09:52:27.882Z,22.30
2023-05-25T09:54:57.407Z,22.80
2023-05-25T09:57:24.315Z,22.60
2023-05-25T09:59:51.933Z,23.10
2023-05-25T10:02:19.048Z,23.40
2023-05-25T10:04:46.489Z,23.90
2023-05-25T10:07:14.214Z,24.00
2023-05-25T10:09:43.365Z,24.40
2023-05-25T10:12:11.804Z,24.50
2023-05-25T10:14:39.721Z,24.90
2023-05-25T10:17:08.701Z,24.80
2023-05-25T10:19:57.191Z,24.50
2023-05-25T10:22:32.505Z,23.70
2023-05-25T10:25:23.033Z,23.50
2023-05-25T10:28:27.507Z,23.30
2023-05-25T10:30:56.941Z,23.50
2023-05-25T10:33:24.654Z,23.80
2023-05-25T10:36:02.990Z,23.90
2023-05-25T10:38:36.950Z,23.80
2023-05-25T10:41:05.747Z,24.30
2023-05-25T10:43:33.052Z,24.20
2023-05-25T10:46:00.159Z,24.00
2023-05-25T10:48:45.403Z,23.90
2023-05-25T10:51:12.696Z,23.80
2023-05-25T10:53:43.218Z,23.80
2023-05-25T10:56:12.067Z,24.20
2023-05-25T10:58:46.707Z,24.10
2023-05-25T11:01:15.846Z,24.00
2023-05-25T11:03:56.724Z,24.40
2023-05-25T11:06:46.540Z,24.60
2023-05-25T11:09:27.768Z,24.20
2023-05-25T11:12:02.011Z,23.60
2023-05-25T11:14:36.145Z,23.30
2023-05-25T11:17:14.813Z,23.30
2023-05-25T11:19:51.701Z,23.60
2023-05-25T11:22:33.254Z,24.00
2023-05-25T11:25:01.940Z,23.60
2023-05-25T11:27:30.708Z,23.90
2023-05-25T11:29:59.318Z,24.00
2023-05-25T11:32:28.363Z,23.70
2023-05-25T11:34:57.610Z,23.30
2023-05-25T11:37:29.019Z,23.40
2023-05-25T11:39:56.372Z,23.10
2023-05-25T11:42:24.834Z,23.30
2023-05-25T11:44:52.075Z,23.50
2023-05-25T11:47:23.664Z,23.80
2023-05-25T11:49:50.778Z,23.90
2023-05-25T11:52:19.850Z,23.50
2023-05-25T11:54:47.164Z,23.00
2023-05-25T11:57:25.276Z,23.00
2023-05-25T11:59:57.675Z,23.30
2023-05-25T12:02:25.029Z,23.40
2023-05-25T12:04:56.155Z,23.10
2023-05-25T12:07:23.741Z,23.10
2023-05-25T12:09:51.173Z,22.90
2023-05-25T12:12:19.406Z,22.80
2023-05-25T12:14:52.203Z,23.00
2023-05-25T12:17:21.419Z,23.20
2023-05-25T12:19:48.892Z,23.50
2023-05-25T12:22:16.454Z,23.60
2023-05-25T12:24:43.463Z,23.90
2023-05-25T12:27:18.321Z,23.60
2023-05-25T12:29:48.597Z,23.40
2023-05-25T12:32:16.158Z,23.00
2023-05-25T12:34:43.456Z,23.10
2023-05-25T12:37:22.791Z,23.10
2023-05-25T12:39:50.717Z,23.00
2023-05-25T12:42:18.295Z,23.00
2023-05-25T12:44:46.684Z,23.10
2023-05-25T12:47:13.934Z,23.10
2023-05-25T12:49:43.019Z,23.00
2023-05-25T12:52:10.950Z,23.00
2023-05-25T12:54:46.199Z,22.90
2023-05-25T12:57:15.130Z,23.10
2023-05-25T12:59:44.321Z,23.20
2023-05-25T13:02:12.819Z,23.30
2023-05-25T13:04:41.438Z,23.40
2023-05-25T13:07:09.067Z,23.30
2023-05-25T13:09:36.857Z,23.50
2023-05-25T13:12:04.332Z,23.40
2023-05-25T13:14:31.293Z,23.00
2023-05-25T13:16:58.304Z,22.80
2023-05-25T13:19:26.176Z,22.10
2023-05-25T13:21:53.456Z,22.10
2023-05-25T13:24:20.650Z,21.90
2023-05-25T13:26:50.023Z,21.80
2023-05-25T13:29:18.307Z,21.90
2023-05-25T13:31:45.536Z,21.80
2023-05-25T13:34:12.947Z,21.60
2023-05-25T13:36:39.822Z,21.80
2023-05-25T13:39:07.435Z,21.60
2023-05-25T13:41:34.384Z,21.60
2023-05-25T13:44:01.316Z,21.30
2023-05-25T13:46:34.741Z,21.30
2023-05-25T13:49:03.664Z,21.60
2023-05-25T13:51:30.984Z,21.70
2023-05-25T13:53:58.024Z,22.00
2023-05-25T13:56:25.049Z,22.10
2023-05-25T13:58:54.026Z,22.20
2023-05-25T14:01:21.223Z,22.30
2023-05-25T14:03:48.419Z,21.90
2023-05-25T14:06:15.417Z,21.50
2023-05-25T14:08:42.309Z,21.20
2023-05-25T14:11:09.214Z,20.90
2023-05-25T14:13:36.615Z,20.90
2023-05-25T14:16:03.893Z,21.30
2023-05-25T14:18:30.902Z,21.30
2023-05-25T14:20:58.017Z,21.40
2023-05-25T14:23:24.973Z,21.30
2023-05-25T14:25:52.124Z,21.10
2023-05-25T14:28:19.057Z,21.10
2023-05-25T14:30:46.013Z,21.20
2023-05-25T14:33:14.563Z,21.30
2023-05-25T14:35:44.986Z,21.40
2023-05-25T14:38:12.180Z,21.40
2023-05-25T14:40:39.109Z,21.30
2023-05-25T14:43:06.046Z,21.30
2023-05-25T14:45:32.958Z,21.20
2023-05-25T14:48:15.431Z,21.20
2023-05-25T14:50:44.590Z,21.20
2023-05-25T14:53:11.993Z,21.30
2023-05-25T14:55:38.986Z,21.10
2023-05-25T14:58:05.953Z,21.00
2023-05-25T15:00:32.999Z,20.90
2023-05-25T15:03:00.233Z,20.90
2023-05-25T15:05:27.252Z,20.90
2023-05-25T15:07:54.180Z,21.10
2023-05-25T15:10:21.119Z,21.10
2023-05-25T15:12:48.038Z,21.00
2023-05-25T15:15:15.348Z,21.10
2023-05-25T15:17:42.454Z,20.90
2023-05-25T15:20:09.924Z,21.00
2023-05-25T15:22:36.876Z,21.10
2023-05-25T15:25:04.651Z,21.10
2023-05-25T15:27:32.359Z,20.90
2023-05-25T15:29:59.441Z,20.70
2023-05-25T15:32:26.521Z,20.70
2023-05-25T15:34:53.532Z,20.90
2023-05-25T15:37:20.592Z,20.80
2023-05-25T15:39:47.544Z,20.80
2023-05-25T15:42:14.515Z,20.90
2023-05-25T15:44:41.591Z,20.90
2023-05-25T15:47:08.546Z,20.70
2023-05-25T15:49:37.194Z,20.80
2023-05-25T15:52:04.583Z,20.90
2023-05-25T15:54:31.534Z,20.80
2023-05-25T15:56:58.480Z,20.70
2023-05-25T15:59:25.437Z,20.70
2023-05-25T16:01:52.424Z,20.80
2023-05-25T16:04:19.686Z,20.70
2023-05-25T16:06:48.608Z,20.40
2023-05-25T16:09:16.229Z,20.40
2023-05-25T16:11:43.265Z,20.60
2023-05-25T16:14:10.200Z,20.60
2023-05-25T16:16:37.200Z,20.60
2023-05-25T16:19:04.242Z,20.70
2023-05-25T16:21:31.241Z,20.60
2023-05-25T16:23:58.286Z,20.60
2023-05-25T16:26:25.252Z,20.60
2023-05-25T16:28:52.240Z,20.40
2023-05-25T16:31:19.273Z,20.40
2023-05-25T16:33:46.337Z,20.40
2023-05-25T16:36:14.213Z,20.30
2023-05-25T16:38:41.636Z,20.30
2023-05-25T16:41:08.694Z,20.30
2023-05-25T16:43:35.763Z,20.40
2023-05-25T16:46:02.674Z,20.40
2023-05-25T16:48:31.356Z,20.20
2023-05-25T16:50:58.596Z,20.00
2023-05-25T16:53:25.656Z,20.00
2023-05-25T16:55:52.861Z,20.00
2023-05-25T16:58:19.794Z,20.00
2023-05-25T17:00:46.709Z,20.10
2023-05-25T17:03:13.854Z,20.20
2023-05-25T17:05:40.894Z,20.20
2023-05-25T17:08:07.790Z,20.20
2023-05-25T17:10:34.704Z,20.30
2023-05-25T17:13:02.145Z,20.10
2023-05-25T17:15:29.103Z,20.00
2023-05-25T17:17:56.086Z,19.90
2023-05-25T17:20:23.075Z,20.00
2023-05-25T17:22:50.117Z,19.90
2023-05-25T17:25:17.059Z,19.80
2023-05-25T17:27:43.966Z,19.70
2023-05-25T17:30:11.304Z,19.60
2023-05-25T17:32:40.123Z,19.60
2023-05-25T17:35:08.145Z,19.50
2023-05-25T17:37:35.279Z,19.40
2023-05-25T17:40:02.308Z,19.40
2023-05-25T17:42:29.310Z,19.20
2023-05-25T17:44:57.030Z,19.20
2023-05-25T17:47:25.562Z,19.30
2023-05-25T17:49:52.665Z,19.20
2023-05-25T17:52:19.588Z,19.20
2023-05-25T17:54:46.615Z,18.90
2023-05-25T17:57:13.617Z,18.90
2023-05-25T17:59:40.601Z,18.90
2023-05-25T18:02:08.119Z,18.80
2023-05-25T18:04:35.093Z,18.60
2023-05-25T18:07:02.027Z,18.50
2023-05-25T18:09:28.997Z,18.40
2023-05-25T18:11:56.430Z,18.30
2023-05-25T18:14:23.380Z,18.30
2023-05-25T18:16:50.434Z,18.10
2023-05-25T18:19:20.258Z,18.00
2023-05-25T18:21:47.278Z,17.90
2023-05-25T18:24:14.295Z,17.90
2023-05-25T18:26:42.288Z,17.70
2023-05-25T18:29:09.724Z,17.50
2023-05-25T18:31:36.928Z,17.40
2023-05-25T18:34:03.986Z,17.30
2023-05-25T18:36:32.986Z,17.20
2023-05-25T18:38:59.981Z,17.10
2023-05-25T18:41:26.939Z,17.00
2023-05-25T18:43:54.334Z,17.00
2023-05-25T18:46:21.782Z,17.00
2023-05-25T18:48:49.058Z,16.80
2023-05-25T18:51:17.172Z,16.70
2023-05-25T18:53:44.904Z,16.70
2023-05-25T18:56:12.026Z,16.60
2023-05-25T18:58:39.052Z,16.60
2023-05-25T19:01:06.065Z,16.40
2023-05-25T19:03:33.379Z,16.30
2023-05-25T19:06:00.564Z,16.10
2023-05-25T19:08:27.503Z,16.10
2023-05-25T19:10:54.392Z,16.00
2023-05-25T19:13:23.090Z,15.90
2023-05-25T19:15:51.087Z,16.00
2023-05-25T19:18:18.424Z,15.90
2023-05-25T19:20:45.999Z,15.80
2023-05-25T19:23:13.195Z,15.70
2023-05-25T19:25:40.112Z,15.70
2023-05-25T19:28:07.286Z,15.70
2023-05-25T19:30:34.644Z,15.60
2023-05-25T19:33:02.013Z,15.50
2023-05-25T19:35:28.940Z,15.40
2023-05-25T19:37:55.879Z,15.30
2023-05-25T19:40:23.977Z,15.20
2023-05-25T19:42:51.023Z,15.00
2023-05-25T19:45:21.305Z,14.80
2023-05-25T19:47:48.509Z,14.80
2023-05-25T19:50:15.636Z,14.70
2023-05-25T19:52:42.608Z,14.60
2023-05-25T19:55:09.873Z,14.40
2023-05-25T19:57:36.795Z,14.40
2023-05-25T20:00:05.965Z,14.40
2023-05-25T20:02:34.356Z,14.30
2023-05-25T20:05:01.505Z,14.30
2023-05-25T20:07:28.491Z,14.30
2023-05-25T20:09:55.444Z,14.20
2023-05-25T20:12:22.442Z,14.00
2023-05-25T20:14:49.445Z,13.90
2023-05-25T20:17:16.543Z,14.00
2023-05-25T20:19:43.591Z,13.80
2023-05-25T20:22:10.498Z,13.70
2023-05-25T20:24:37.574Z,13.70
2023-05-25T20:27:06.516Z,13.60
2023-05-25T20:29:33.879Z,13.50
2023-05-25T20:32:01.160Z,13.50
2023-05-25T20:34:28.164Z,13.50
2023-05-25T20:36:55.024Z,13.40
2023-05-25T20:39:21.928Z,13.30
2023-05-25T20:41:48.851Z,13.20
2023-05-25T20:44:16.181Z,13.10
2023-05-25T20:46:43.211Z,13.00
2023-05-25T20:49:10.361Z,12.90
2023-05-25T20:51:37.395Z,12.90
2023-05-25T20:54:04.458Z,12.90
2023-05-25T20:56:31.427Z,12.90
2023-05-25T20:58:58.271Z,12.80
2023-05-25T21:01:25.502Z,12.70
2023-05-25T21:03:52.713Z,12.70
2023-05-25T21:06:19.721Z,12.60
2023-05-25T21:08:46.743Z,12.50
2023-05-25T21:11:13.727Z,12.40
2023-05-25T21:13:40.609Z,12.30
2023-05-25T21:16:07.950Z,12.30
2023-05-25T21:18:35.253Z,12.20
2023-05-25T21:21:02.556Z,12.20
2023-05-25T21:23:29.544Z,12.10
2023-05-25T21:25:56.552Z,12.00
2023-05-25T21:28:24.132Z,12.00
2023-05-25T21:30:51.007Z,11.90
2023-05-25T21:33:17.905Z,11.90
2023-05-25T21:35:45.106Z,11.90
2023-05-25T21:38:12.241Z,11.80
2023-05-25T21:40:39.206Z,11.70
2023-05-25T21:43:08.484Z,11.70
2023-05-25T21:45:35.452Z,11.60
2023-05-25T21:48:03.759Z,11.40
2023-05-25T21:50:30.976Z,11.50
2023-05-25T21:52:57.874Z,11.40
2023-05-25T21:55:24.737Z,11.30
2023-05-25T21:57:51.605Z,11.20
2023-05-25T22:00:18.679Z,11.20
2023-05-25T22:02:45.729Z,11.20
2023-05-25T22:05:12.780Z,11.20
2023-05-25T22:07:39.685Z,11.20
2023-05-25T22:10:07.730Z,11.10
2023-05-25T22:12:34.639Z,11.00
2023-05-25T22:15:01.535Z,11.00
2023-05-25T22:17:28.522Z,11.10
2023-05-25T22:20:07.530Z,11.00
2023-05-25T22:22:35.559Z,10.90
2023-05-25T22:25:02.585Z,10.80
2023-05-25T22:27:29.643Z,10.80
2023-05-25T22:29:56.540Z,10.80
2023-05-25T22:32:23.573Z,10.70
2023-05-25T22:34:50.623Z,10.80
2023-05-25T22:37:17.693Z,10.70
2023-05-25T22:39:44.648Z,10.60
2023-05-25T22:42:11.604Z,10.50
2023-05-25T22:44:38.768Z,10.40
2023-05-25T22:47:06.646Z,10.30
2023-05-25T22:49:41.215Z,10.30
2023-05-25T22:52:11.270Z,10.30
2023-05-25T22:54:38.240Z,10.20
2023-05-25T22:57:05.683Z,10.10
2023-05-25T22:59:32.696Z,10.20
2023-05-25T23:01:59.626Z,10.20
2023-05-25T23:04:26.568Z,10.20
2023-05-25T23:06:53.600Z,10.10
2023-05-25T23:09:20.517Z,10.10
2023-05-25T23:11:47.487Z,10.10
2023-05-25T23:14:14.357Z,10.10
2023-05-25T23:16:41.696Z,10.00
2023-05-25T23:19:09.174Z,10.10
2023-05-25T23:21:36.157Z,10.00
2023-05-25T23:24:03.081Z,9.90
2023-05-25T23:26:30.138Z,9.90
2023-05-25T23:28:57.174Z,9.90
2023-05-25T23:31:24.110Z,9.80
2023-05-25T23:33:51.046Z,9.70
2023-05-25T23:36:17.941Z,9.80
2023-05-25T23:38:46.422Z,9.80
2023-05-25T23:41:13.424Z,9.70
2023-05-25T23:43:40.339Z,9.60
2023-05-25T23:46:07.351Z,9.80
2023-05-25T23:48:34.253Z,9.70
2023-05-25T23:51:01.404Z,9.60
2023-05-25T23:53:28.412Z,9.50
2023-05-25T23:55:55.349Z,9.50
2023-05-25T23:58:22.290Z,9.40
